Flight Track Log - Related Links

Times and Time Zones

All times are in EDT time to prevent confusion due to time zone crossing. See the SWA1881 flight status page for this flight to view local times or setup timezone preferences in your user account.

Time Position Orientation Groundspeed Altitude Reporting Facility
EDT Latitude Longitude Course Direction KTS MPH feet Rate Location/Type
Sun 12:54:30 PM 41.7500 -87.8333 282° West 205 236 3,000  Level Chicago TRACON
Sun 12:55:24 PM 41.7500 -87.9167 270° West 254 292 5,200 2,057 Climbing Chicago TRACON
Sun 12:55:40 PM 41.7489 -87.9214 252° West 234 269 5,400 3,154 Climbing Chicago Center
Sun 12:56:42 PM 41.7511 -88.0372 272° West 272 313 9,300 3,290 Climbing Chicago Center
Sun 12:57:44 PM 41.7847 -88.1236 298° West 267 307 12,200 2,419 Climbing Chicago Center
Sun 12:58:46 PM 41.7789 -88.2258 266° West 281 323 14,300 1,839 Climbing Chicago Center
Sun 12:59:00 PM 41.8932 -88.4386 282° West  Level FlightAware Approximate
Sun 12:59:48 PM 41.7728 -88.3428 266° West 307 353 16,000  Level Chicago Center
Sun 01:00:51 PM 41.7656 -88.5017 267° West 355 409 18,000 2,016 Climbing Chicago Center
Sun 01:01:53 PM 41.7594 -88.6408 267° West 375 432 20,200 2,129 Climbing Chicago Center
Sun 01:02:55 PM 41.7394 -88.7808 259° West 385 443 22,400 1,935 Climbing Chicago Center
Sun 01:03:57 PM 41.7100 -88.9183 254° West 388 447 24,200 1,500 Climbing Chicago Center
Sun 01:04:59 PM 41.6786 -89.0594 253° West 397 457 25,500 1,403 Climbing Chicago Center
Sun 01:06:01 PM 41.6411 -89.2347 254° West 411 473 27,100 1,887 Climbing Chicago Center
Sun 01:07:03 PM 41.6083 -89.3797 253° West 411 473 29,400 1,984 Climbing Chicago Center
Sun 01:08:05 PM 41.5786 -89.5158 254° West 391 450 31,200 1,452 Climbing Chicago Center
Sun 01:09:07 PM 41.5461 -89.6600 253° West 383 441 32,400 1,016 Climbing Chicago Center
Sun 01:10:09 PM 41.5158 -89.7964 254° West 384 442 33,300 774 Climbing Chicago Center
Sun 01:11:11 PM 41.4856 -89.9306 253° West 382 440 34,000 339 Climbing Chicago Center
Sun 01:12:13 PM 41.4547 -90.0667 253° West 384 442 34,000 484 Level Chicago Center
Sun 01:13:15 PM 41.4178 -90.2258 253° West 379 436 35,000 968 Climbing Chicago Center
Sun 01:14:17 PM 41.3881 -90.3583 253° West 376 433 36,000 484 Climbing Chicago Center
Sun 01:15:19 PM 41.3561 -90.4906 252° West 377 434 36,000  Level Chicago Center
Sun 01:16:21 PM 41.3253 -90.6236 253° West 379 436 36,000  Level Chicago Center
Sun 01:17:23 PM 41.2875 -90.7544 249° West 381 438 36,000  Level Chicago Center
Sun 01:19:27 PM 41.2033 -91.0369 248° West 376 433 36,000  Level Chicago Center
Sun 01:20:29 PM 41.1647 -91.1661 248° West 377 434 36,000  Level Chicago Center
Sun 01:21:32 PM 41.1269 -91.2947 249° West 377 434 36,000  Level Chicago Center
Sun 01:22:34 PM 41.0881 -91.4236 248° West 377 434 36,000  Level Chicago Center
Sun 01:23:36 PM 41.0603 -91.5569 255° West 377 434 36,000  Level Chicago Center
Sun 01:24:38 PM 41.0400 -91.7053 260° West 379 436 36,000  Level Chicago Center
Sun 01:25:40 PM 41.0222 -91.8414 260° West 379 436 36,000  Level Chicago Center
Sun 01:26:42 PM 41.0031 -91.9767 259° West 377 434 36,000  Level Chicago Center
Sun 01:27:44 PM 40.9792 -92.1389 259° West 378 435 36,000  Level Chicago Center
Sun 01:28:46 PM 40.9600 -92.2714 259° West 373 429 36,000  Level Chicago Center
Sun 01:29:48 PM 40.9406 -92.4061 259° West 377 434 36,000  Level Chicago Center
Sun 01:30:50 PM 40.9206 -92.5414 259° West 379 436 36,000  Level Chicago Center
Sun 01:31:52 PM 40.8972 -92.7022 259° West 378 435 36,000  Level Chicago Center
Sun 01:32:55 PM 40.8769 -92.8378 259° West 378 435 36,000  Level Chicago Center
Sun 01:33:57 PM 40.8561 -92.9747 259° West 382 440 36,000  Level Chicago Center
Sun 01:34:59 PM 40.8356 -93.1108 259° West 383 441 36,000  Level Chicago Center
Sun 01:36:01 PM 40.8111 -93.2728 259° West 380 437 36,000  Level Chicago Center
Sun 01:37:03 PM 40.7883 -93.4094 258° West 386 444 36,000  Level Chicago Center
Sun 01:38:05 PM 40.7675 -93.5464 259° West 386 444 36,000  Level Chicago Center
Sun 01:39:07 PM 40.7456 -93.6825 258° West 383 441 36,000  Level Chicago Center
Sun 01:39:29 PM 40.7383 -93.7353 260° West 383 441 36,000  Level Minneapolis Center
Sun 01:40:31 PM 40.7164 -93.8714 258° West 382 440 36,000  Level Minneapolis Center
Sun 01:41:33 PM 40.6942 -94.0067 258° West 382 440 36,000  Level Minneapolis Center
Sun 01:42:35 PM 40.6664 -94.1697 257° West 383 441 36,000  Level Minneapolis Center
Sun 01:43:37 PM 40.6447 -94.3064 258° West 383 441 36,000  Level Minneapolis Center
Sun 01:44:39 PM 40.6208 -94.4447 257° West 388 447 36,000  Level Minneapolis Center
Sun 01:45:41 PM 40.5978 -94.5831 258° West 390 449 36,000  Level Minneapolis Center
Sun 01:46:43 PM 40.5719 -94.7456 258° West 385 443 36,000  Level Minneapolis Center
Sun 01:47:45 PM 40.5467 -94.8856 257° West 388 447 36,000  Level Minneapolis Center
Sun 01:48:48 PM 40.5236 -95.0233 258° West 387 445 36,000  Level Minneapolis Center
Sun 01:49:50 PM 40.5003 -95.1619 258° West 387 445 36,000  Level Minneapolis Center
Sun 01:50:52 PM 40.4767 -95.2992 257° West 387 445 36,000  Level Minneapolis Center
Sun 01:51:54 PM 40.4525 -95.4378 257° West 388 447 36,000  Level Minneapolis Center
Sun 01:52:56 PM 40.4283 -95.5753 257° West 387 445 36,000  Level Minneapolis Center
Sun 01:53:58 PM 40.3994 -95.7422 257° West 389 448 36,000  Level Minneapolis Center
Sun 01:55:00 PM 40.3753 -95.8808 257° West 389 448 36,000  Level Minneapolis Center
Sun 01:56:02 PM 40.3506 -96.0178 257° West 387 445 36,000  Level Minneapolis Center
Sun 01:57:04 PM 40.3258 -96.1556 257° West 387 445 36,000  Level Minneapolis Center
Sun 01:58:06 PM 40.3008 -96.2942 257° West 389 448 36,000  Level Minneapolis Center
Sun 01:59:08 PM 40.2744 -96.4322 256° West 390 449 36,000  Level Minneapolis Center
Sun 02:00:10 PM 40.2492 -96.5683 256° West 386 444 36,000  Level Minneapolis Center
Sun 02:01:12 PM 40.2192 -96.7325 257° West 386 444 36,000  Level Minneapolis Center
Sun 02:02:14 PM 40.1933 -96.8692 256° West 386 444 36,000  Level Minneapolis Center
Sun 02:03:16 PM 40.1672 -97.0047 256° West 384 442 36,000  Level Minneapolis Center
Sun 02:04:18 PM 40.1464 -97.1139 256° West 386 444 36,000  Level Minneapolis Center
Sun 02:05:21 PM 40.1158 -97.2781 256° West 388 447 36,000  Level Minneapolis Center
Sun 02:06:23 PM 40.0894 -97.4131 256° West 388 447 36,000  Level Minneapolis Center
Sun 02:07:25 PM 40.0575 -97.5772 256° West 389 448 36,000  Level Minneapolis Center
Sun 02:08:27 PM 40.0308 -97.7156 256° West 391 450 36,000  Level Minneapolis Center
Sun 02:09:29 PM 40.0028 -97.8517 255° West 390 449 36,000  Level Minneapolis Center
Sun 02:10:31 PM 39.9756 -97.9914 256° West 392 451 36,000  Level Minneapolis Center
Sun 02:11:33 PM 39.9486 -98.1289 256° West 392 451 36,000  Level Minneapolis Center
Sun 02:12:35 PM 39.9200 -98.2669 255° West 393 452 36,000  Level Minneapolis Center
Sun 02:13:37 PM 39.8869 -98.4308 255° West 391 450 36,000  Level Minneapolis Center
Sun 02:14:39 PM 39.8592 -98.5675 255° West 390 449 36,000  Level Minneapolis Center
Sun 02:15:42 PM 39.8319 -98.7033 255° West 389 448 36,000  Level Minneapolis Center
Sun 02:16:44 PM 39.8042 -98.8353 255° West 384 442 36,000  Level Minneapolis Center
Sun 02:17:46 PM 39.7764 -98.9694 255° West 382 440 36,000  Level Minneapolis Center
Sun 02:18:57 PM 39.7417 -99.1317 254° West 386 444 36,000  Level Denver Center
Sun 02:19:59 PM 39.7142 -99.2661 255° West 385 443 36,000  Level Denver Center
Sun 02:21:01 PM 39.6847 -99.4022 254° West 389 448 36,000  Level Denver Center
Sun 02:22:03 PM 39.6564 -99.5375 255° West 389 448 36,000  Level Denver Center
Sun 02:23:05 PM 39.6200 -99.7011 254° West 391 450 36,000  Level Denver Center
Sun 02:24:07 PM 39.5911 -99.8364 255° West 389 448 36,000  Level Denver Center
Sun 02:25:09 PM 39.5597 -99.9794 254° West 385 443 36,000  Level Denver Center
Sun 02:26:11 PM 39.5311 -100.1075 254° West 384 442 36,000  Level Denver Center
Sun 02:27:13 PM 39.5031 -100.2358 254° West 385 443 36,000  Level Denver Center
Sun 02:28:15 PM 39.4697 -100.3858 254° West 387 445 36,000  Level Denver Center
Sun 02:29:17 PM 39.4411 -100.5106 253° West 380 437 36,000  Level Denver Center
Sun 02:30:19 PM 39.4078 -100.6622 254° West 389 448 36,000  Level Denver Center
Sun 02:31:21 PM 39.3778 -100.7897 253° West 388 447 36,000  Level Denver Center
Sun 02:32:23 PM 39.3442 -100.9386 254° West 387 445 36,000  Level Denver Center
Sun 02:33:25 PM 39.3150 -101.0678 254° West 390 449 36,000  Level Denver Center
Sun 02:34:27 PM 39.2806 -101.2178 254° West 389 448 36,000  Level Denver Center
Sun 02:35:29 PM 39.2511 -101.3450 253° West 386 444 36,000  Level Denver Center
Sun 02:36:32 PM 39.2164 -101.4925 253° West 385 443 36,000  Level Denver Center
Sun 02:37:34 PM 39.1867 -101.6192 253° West 386 444 36,000  Level Denver Center
Sun 02:38:36 PM 39.1533 -101.7592 253° West 384 442 36,000  Level Denver Center
Sun 02:39:38 PM 39.1231 -101.8858 253° West 388 447 36,000  Level Denver Center
Sun 02:40:40 PM 39.0875 -102.0336 253° West 388 447 36,000  Level Denver Center
Sun 02:41:42 PM 39.0581 -102.1594 253° West 386 444 36,000  Level Denver Center
Sun 02:42:44 PM 39.0219 -102.3075 253° West 388 447 36,000  Level Denver Center
Sun 02:43:46 PM 38.9903 -102.4336 252° West 389 448 36,000  Level Denver Center
Sun 02:44:48 PM 38.9553 -102.5803 253° West 386 444 36,000  Level Denver Center
Sun 02:45:50 PM 38.9247 -102.7050 253° West 383 441 36,000  Level Denver Center
Sun 02:46:52 PM 38.8922 -102.8369 252° West 385 443 36,000  Level Denver Center
Sun 02:47:54 PM 38.8603 -102.9661 252° West 382 440 36,000  Level Denver Center
Sun 02:48:56 PM 38.8219 -103.1219 253° West 381 438 36,000  Level Denver Center
Sun 02:49:58 PM 38.7892 -103.2511 252° West 381 438 36,000  Level Denver Center
Sun 02:51:01 PM 38.7564 -103.3811 252° West 383 441 36,000  Level Denver Center
Sun 02:52:03 PM 38.7231 -103.5081 251° West 389 448 36,000  Level Denver Center
Sun 02:53:05 PM 38.6861 -103.6553 252° West 389 448 36,000  Level Denver Center
Sun 02:54:07 PM 38.6536 -103.7794 252° West 388 447 36,000  Level Denver Center
Sun 02:55:09 PM 38.6164 -103.9244 252° West 384 442 36,000  Level Denver Center
Sun 02:56:11 PM 38.5844 -104.0481 252° West 383 441 36,000  Level Denver Center
Sun 02:57:13 PM 38.5281 -104.1797 241° Southwest 390 449 36,000  Level Denver Center
Sun 02:58:15 PM 38.4644 -104.2931 234° Southwest 391 450 36,000  Level Denver Center
Sun 02:59:17 PM 38.4003 -104.4047 234° Southwest 390 449 36,000  Level Denver Center
Sun 03:00:19 PM 38.3372 -104.5164 234° Southwest 388 447 36,000  Level Denver Center
Sun 03:01:21 PM 38.2636 -104.6456 234° Southwest 391 450 36,000  Level Denver Center
Sun 03:02:23 PM 38.2025 -104.7519 234° Southwest 392 451 36,000  Level Denver Center
Sun 03:03:26 PM 38.1264 -104.8742 232° Southwest 396 456 36,000  Level Denver Center
Sun 03:04:27 PM 38.0614 -104.9781 232° Southwest 394 453 36,000  Level Denver Center
Sun 03:05:29 PM 37.9850 -105.1014 232° Southwest 399 459 36,000  Level Denver Center
Sun 03:06:31 PM 37.9208 -105.2056 232° Southwest 394 453 36,000  Level Denver Center
Sun 03:07:33 PM 37.8464 -105.3269 232° Southwest 393 452 36,000  Level Denver Center
Sun 03:08:35 PM 37.7861 -105.4322 234° Southwest 390 449 36,000  Level Denver Center
Sun 03:09:37 PM 37.7144 -105.5586 234° Southwest 395 455 36,000  Level Denver Center
Sun 03:10:39 PM 37.6572 -105.6664 236° Southwest 389 448 36,000  Level Denver Center
Sun 03:11:41 PM 37.6231 -105.8108 253° West 382 440 36,000  Level Denver Center
Sun 03:12:55 PM 37.5944 -105.9358 254° West 387 445 36,000  Level Denver Center
Sun 03:13:57 PM 37.5581 -106.1011 255° West 384 442 36,000  Level Denver Center
Sun 03:14:59 PM 37.5286 -106.2308 254° West 389 448 36,000  Level Denver Center
Sun 03:16:01 PM 37.5014 -106.3558 255° West 388 447 36,000  Level Denver Center
Sun 03:17:03 PM 37.4692 -106.5006 254° West 385 443 36,000  Level Denver Center
Sun 03:18:05 PM 37.4406 -106.6267 254° West 390 449 36,000  Level Denver Center
Sun 03:19:07 PM 37.4075 -106.7711 254° West 386 444 36,000  Level Denver Center
Sun 03:20:08 PM 37.3792 -106.8969 254° West 391 450 36,000  Level Denver Center
Sun 03:21:10 PM 37.3447 -107.0428 253° West 391 450 36,000  Level Denver Center
Sun 03:22:12 PM 37.3156 -107.1692 254° West 393 452 36,000  Level Denver Center
Sun 03:23:14 PM 37.2811 -107.3175 254° West 396 456 36,000  Level Denver Center
Sun 03:24:16 PM 37.2517 -107.4431 254° West 394 453 36,000  Level Denver Center
Sun 03:25:18 PM 37.2164 -107.5928 254° West 398 458 36,000  Level Denver Center
Sun 03:26:19 PM 37.1858 -107.7211 253° West 403 464 36,000  Level Denver Center
Sun 03:27:21 PM 37.1558 -107.8486 254° West 400 460 36,000  Level Denver Center
Sun 03:28:23 PM 37.1192 -107.9967 253° West 399 459 36,000  Level Denver Center
Sun 03:29:25 PM 37.0883 -108.1244 253° West 399 459 36,000  Level Denver Center
Sun 03:30:27 PM 37.0531 -108.2722 253° West 398 458 36,000  Level Denver Center
Sun 03:31:41 PM 37.0217 -108.3989 253° West 400 460 36,000  Level Denver Center
Sun 03:32:42 PM 36.9861 -108.5442 253° West 394 453 36,000  Level Denver Center
Sun 03:33:45 PM 36.9500 -108.6906 253° West 395 455 36,000  Level Denver Center
Sun 03:34:47 PM 36.9139 -108.8350 253° West 392 451 36,000  Level Denver Center
Sun 03:35:48 PM 36.8825 -108.9581 252° West 391 450 36,000  Level Denver Center
Sun 03:36:50 PM 36.8467 -109.1042 253° West 394 453 36,000  Level Denver Center
Sun 03:37:52 PM 36.8156 -109.2278 253° West 393 452 36,000  Level Denver Center
Sun 03:38:54 PM 36.7781 -109.3717 252° West 392 451 36,000  Level Denver Center
Sun 03:39:55 PM 36.7469 -109.4961 253° West 393 452 36,000  Level Denver Center
Sun 03:40:57 PM 36.7092 -109.6406 252° West 395 455 36,000  Level Denver Center
Sun 03:41:59 PM 36.6775 -109.7639 252° West 393 452 36,000  Level Denver Center
Sun 03:43:01 PM 36.6397 -109.9069 252° West 391 450 36,000  Level Denver Center
Sun 03:44:02 PM 36.6078 -110.0319 252° West 395 455 36,000  Level Denver Center
Sun 03:45:04 PM 36.5711 -110.1689 252° West 396 456 36,000  Level Denver Center
Sun 03:46:06 PM 36.5447 -110.2719 252° West 394 453 36,000  Level Denver Center
Sun 03:47:08 PM 36.5025 -110.4272 251° West 394 453 36,000  Level Denver Center
Sun 03:48:10 PM 36.4692 -110.5564 252° West 394 453 36,000  Level Denver Center
Sun 03:49:11 PM 36.4339 -110.6869 251° West 397 457 36,000  Level Denver Center
Sun 03:50:13 PM 36.3919 -110.8422 251° West 396 456 36,000  Level Denver Center
Sun 03:51:15 PM 36.3564 -110.9733 251° West 399 459 36,000  Level Denver Center
Sun 03:52:17 PM 36.3203 -111.1042 251° West 400 460 36,000  Level Denver Center
Sun 03:53:19 PM 36.2844 -111.2358 251° West 401 461 36,000  Level Denver Center
Sun 03:54:20 PM 36.2481 -111.3658 251° West 400 460 36,000  Level Denver Center
Sun 03:55:22 PM 36.2042 -111.4931 247° West 401 461 36,000  Level Denver Center
Sun 03:56:24 PM 36.1608 -111.6189 247° West 398 458 36,000  Level Denver Center
Sun 03:57:10 PM 36.1250 -111.7219 247° West 400 460 36,000  Level Los Angeles Center
Sun 03:58:12 PM 36.0817 -111.8472 247° West 398 458 36,000  Level Los Angeles Center
Sun 03:59:14 PM 36.0378 -111.9756 247° West 395 455 36,000  Level Los Angeles Center
Sun 04:00:16 PM 35.9939 -112.1022 247° West 401 461 36,000  Level Los Angeles Center
Sun 04:02:20 PM 35.8978 -112.3789 247° West 403 464 36,000  Level Los Angeles Center
Sun 04:03:23 PM 35.8531 -112.5036 246° West 403 464 36,000  Level Los Angeles Center
Sun 04:04:24 PM 35.8086 -112.6303 247° West 406 467 36,000  Level Los Angeles Center
Sun 04:05:27 PM 35.7572 -112.7792 247° West 401 461 36,000  Level Los Angeles Center
Sun 04:06:29 PM 35.7122 -112.9039 246° West 404 465 36,000  Level Los Angeles Center
Sun 04:07:31 PM 35.6636 -113.0383 246° West 401 461 36,000  Level Los Angeles Center
Sun 04:08:33 PM 35.6183 -113.1633 246° West 401 461 36,000  Level Los Angeles Center
Sun 04:09:35 PM 35.5711 -113.2981 247° West 400 460 36,000  Level Los Angeles Center
Sun 04:10:37 PM 35.5258 -113.4211 246° West 401 461 36,000  Level Los Angeles Center
Sun 04:11:39 PM 35.4811 -113.5447 246° West 400 460 36,000  Level Los Angeles Center
Sun 04:12:41 PM 35.4353 -113.6692 246° West 402 463 36,000  Level Los Angeles Center
Sun 04:13:43 PM 35.3897 -113.7939 246° West 403 464 36,000  Level Los Angeles Center
Sun 04:14:45 PM 35.3350 -113.9406 245° Southwest 401 461 36,000  Level Los Angeles Center
Sun 04:15:47 PM 35.2900 -114.0647 246° West 399 459 36,000  Level Los Angeles Center
Sun 04:16:49 PM 35.2428 -114.1900 245° Southwest 403 464 36,000  Level Los Angeles Center
Sun 04:17:51 PM 35.1967 -114.3142 246° West 402 463 36,000  Level Los Angeles Center
Sun 04:18:54 PM 35.1497 -114.4400 246° West 403 464 36,000  Level Los Angeles Center
Sun 04:19:56 PM 35.0919 -114.5928 245° Southwest 410 472 36,000  Level Los Angeles Center
Sun 04:20:58 PM 35.0456 -114.7169 246° West 404 465 36,000  Level Los Angeles Center
Sun 04:22:00 PM 34.9986 -114.8431 246° West 406 467 36,000  Level Los Angeles Center
Sun 04:23:02 PM 34.9508 -114.9661 245° Southwest 402 463 36,000 -290 Level Los Angeles Center
Sun 04:24:04 PM 34.9042 -115.0900 245° Southwest 401 461 35,400 -774 Descending Los Angeles Center
Sun 04:25:06 PM 34.8561 -115.2142 245° Southwest 404 465 34,400 -968 Descending Los Angeles Center
Sun 04:26:08 PM 34.8081 -115.3403 245° Southwest 408 470 33,400 -1,016 Descending Los Angeles Center
Sun 04:27:10 PM 34.7494 -115.4944 245° Southwest 416 479 32,300 -672 Descending Los Angeles Center
Sun 04:28:13 PM 34.7039 -115.6097 244° Southwest 410 472 32,000 -144 Descending Los Angeles Center
Sun 04:29:15 PM 34.6553 -115.7358 245° Southwest 410 472 32,000  Level Los Angeles Center
Sun 04:30:17 PM 34.6064 -115.8603 245° Southwest 410 472 32,000  Level Los Angeles Center
Sun 04:31:19 PM 34.5467 -116.0103 244° Southwest 412 474 32,000  Level Los Angeles Center
Sun 04:32:21 PM 34.4992 -116.1331 245° Southwest 406 467 32,000  Level Los Angeles Center
Sun 04:33:23 PM 34.4494 -116.2544 244° Southwest 404 465 32,000  Level Los Angeles Center
Sun 04:34:25 PM 34.4028 -116.3764 245° Southwest 400 460 32,000 -919 Level Los Angeles Center
Sun 04:35:27 PM 34.3517 -116.5003 243° Southwest 406 467 30,100 -2,032 Descending Los Angeles Center
Sun 04:36:29 PM 34.3042 -116.6206 244° Southwest 401 461 27,800 -2,177 Descending Los Angeles Center
Sun 04:37:31 PM 34.2569 -116.7381 244° Southwest 392 451 25,600 -2,256 Descending Los Angeles Center
Sun 04:38:34 PM 34.2019 -116.8758 244° Southwest 381 438 23,100 -2,400 Descending Los Angeles Center
Sun 04:39:36 PM 34.1572 -116.9864 244° Southwest 368 423 20,600 -1,984 Descending Los Angeles Center
Sun 04:40:38 PM 34.1128 -117.0958 244° Southwest 370 426 19,000 -1,909 Descending Los Angeles Center
Sun 04:41:04 PM 34.0833 -117.1500 237° Southwest 358 412 17,800 -2,581 Descending Southern California TRACON
Sun 04:42:04 PM 34.0500 -117.2667 251° West 368 423 15,300 -2,300 Descending Southern California TRACON
Sun 04:43:04 PM 34.0333 -117.3833 260° West 354 407 13,200 -1,950 Descending Southern California TRACON
Sun 04:44:04 PM 34.0333 -117.5000 270° West 330 380 11,400 -1,438 Descending Southern California TRACON
Sun 04:45:05 PM 34.0333 -117.6000 270° West 300 345 10,300 -744 Descending Southern California TRACON
Sun 04:46:05 PM 34.0167 -117.7000 259° West 290 334 9,900 -900 Descending Southern California TRACON
Sun 04:47:05 PM 34.0167 -117.8000 270° West 279 321 8,500 -1,240 Descending Southern California TRACON
Sun 04:48:06 PM 34.0000 -117.8833 256° West 274 315 7,400 -1,140 Descending Southern California TRACON
Sun 04:49:06 PM 34.0000 -117.9833 270° West 275 316 6,200 -1,250 Descending Southern California TRACON
Sun 04:50:06 PM 33.9833 -118.0667 256° West 266 306 4,900 -1,115 Descending Southern California TRACON
Sun 04:50:59 PM 33.9800 -118.1336 267° West 265 305 4,100 -939 Descending Los Angeles Center
Sun 04:52:01 PM 33.9722 -118.2097 263° West 243 280 3,100 -871 Descending Los Angeles Center
Sun 04:53:03 PM 33.9664 -118.2692 263° West 193 222 2,300 -871 Descending Los Angeles Center
Sun 04:54:05 PM 33.9592 -118.3342 262° West 175 201 1,300 -823 Descending Los Angeles Center
Sun 04:55:07 PM 33.9556 -118.3808 265° West 157 181 600 -581 Descending Los Angeles Center
Sun 04:56:09 PM 33.9506 -118.4217 262° West 150 173 100 -484 Descending Los Angeles Center
Sun 04:58:00 PM 33.9425 -118.4081 259° West  Level Estimated

Login

Don't have an account? Register now (free) for customized features, flight alerts, and more!